Time;durP1;ratioP1;P1;durP2;ratioP2;P2;SDS_P1;SDS_P2;PMS_P1;PMS_P2;Temp;Humidity;BMP_temperature;BMP_pressure;BME280_temperature;BME280_humidity;BME280_pressure;Samples;Min_cycle;Max_cycle;Signal;HPM_P1;HPM_P2
2023/01/31 00:00:26;;;;;;;14.60;5.18;;;3.20;4.70;;;;;;7331238;19;20019;-82
2023/01/31 00:02:56;;;;;;;15.13;5.35;;;3.20;4.60;;;;;;7309855;19;20019;-79
2023/01/31 00:05:28;;;;;;;9.18;5.38;;;3.20;4.80;;;;;;7315193;19;20644;-82
2023/01/31 00:07:59;;;;;;;12.85;5.75;;;3.20;4.70;;;;;;7311570;19;20010;-82
2023/01/31 00:10:32;;;;;;;11.02;5.35;;;3.20;4.60;;;;;;7306015;19;20026;-81
2023/01/31 00:13:02;;;;;;;10.60;5.10;;;3.20;4.70;;;;;;7316317;19;20010;-81
2023/01/31 00:15:32;;;;;;;9.02;5.00;;;3.20;4.50;;;;;;7337698;19;20018;-81
2023/01/31 00:18:02;;;;;;;16.40;4.93;;;3.10;4.20;;;;;;7317544;19;20010;-82
2023/01/31 00:20:31;;;;;;;11.35;5.53;;;3.20;4.20;;;;;;7308185;19;20479;-81
2023/01/31 00:23:04;;;;;;;8.80;5.40;;;3.10;4.10;;;;;;7314049;19;20010;-82
2023/01/31 00:25:37;;;;;;;10.77;5.40;;;3.10;4.10;;;;;;7328779;19;20018;-81
2023/01/31 00:28:07;;;;;;;10.38;4.90;;;3.10;4.10;;;;;;7299220;19;20013;-81
2023/01/31 00:30:37;;;;;;;12.80;6.18;;;3.10;4.10;;;;;;7308123;19;20082;-81
2023/01/31 00:33:08;;;;;;;12.90;5.25;;;3.10;3.70;;;;;;7320293;19;20025;-81
2023/01/31 00:35:41;;;;;;;12.07;5.18;;;3.10;3.90;;;;;;7318721;19;20571;-82
2023/01/31 00:38:11;;;;;;;13.70;5.65;;;3.10;4.10;;;;;;7322603;19;20022;-81
2023/01/31 00:40:43;;;;;;;12.80;5.22;;;3.10;3.30;;;;;;7313109;19;20008;-81
2023/01/31 00:43:13;;;;;;;10.25;5.75;;;3.20;2.70;;;;;;7320324;19;20014;-82
2023/01/31 00:45:43;;;;;;;10.00;5.07;;;3.20;2.20;;;;;;7307966;19;20019;-82
2023/01/31 00:48:13;;;;;;;9.98;4.90;;;3.10;2.30;;;;;;7339812;19;20015;-81
2023/01/31 00:50:43;;;;;;;13.98;5.00;;;3.10;2.20;;;;;;7325771;19;20014;-81
2023/01/31 00:53:13;;;;;;;9.27;5.15;;;3.10;2.00;;;;;;7305902;19;20074;-81
2023/01/31 00:55:46;;;;;;;7.93;4.53;;;3.10;1.70;;;;;;7305846;19;20517;-81
2023/01/31 00:58:16;;;;;;;8.98;4.10;;;3.00;2.00;;;;;;7312050;19;20624;-81
2023/01/31 01:00:46;;;;;;;7.88;4.93;;;3.10;1.10;;;;;;7312618;19;20474;-82
2023/01/31 01:03:17;;;;;;;11.10;4.63;;;3.00;1.00;;;;;;7325241;19;20021;-82
2023/01/31 01:05:47;;;;;;;8.38;4.90;;;3.00;1.50;;;;;;7305430;19;20011;-81
2023/01/31 01:08:18;;;;;;;11.68;4.68;;;2.90;1.40;;;;;;7295903;19;20011;-81
2023/01/31 01:10:51;;;;;;;8.88;4.60;;;2.90;1.50;;;;;;7304030;19;20047;-81
2023/01/31 01:13:21;;;;;;;10.45;4.55;;;2.90;1.90;;;;;;7293317;19;20010;-80
2023/01/31 01:15:51;;;;;;;12.48;4.82;;;2.80;1.80;;;;;;7303778;19;20093;-81
2023/01/31 01:18:21;;;;;;;7.97;4.55;;;2.80;2.30;;;;;;7333125;19;20007;-80
2023/01/31 01:20:50;;;;;;;11.15;4.80;;;2.80;2.20;;;;;;7299293;19;20038;-81
2023/01/31 01:23:20;;;;;;;6.28;3.90;;;2.70;2.50;;;;;;7304894;19;20410;-81
2023/01/31 01:25:53;;;;;;;11.25;4.75;;;2.70;2.80;;;;;;7308624;19;20013;-81
2023/01/31 01:28:23;;;;;;;12.82;4.47;;;2.70;3.50;;;;;;7306218;19;20018;-82
2023/01/31 01:30:53;;;;;;;12.82;4.72;;;2.60;3.50;;;;;;7312856;19;20893;-81
2023/01/31 01:33:23;;;;;;;11.98;4.85;;;2.60;3.80;;;;;;7330613;19;20052;-79
2023/01/31 01:35:52;;;;;;;16.30;4.80;;;2.60;3.80;;;;;;7306452;19;20015;-80
2023/01/31 01:38:22;;;;;;;11.55;4.50;;;2.50;3.80;;;;;;7297712;19;20591;-80
2023/01/31 01:40:55;;;;;;;9.07;4.88;;;2.50;4.20;;;;;;7309454;19;20010;-81
2023/01/31 01:43:41;;;;;;;14.77;5.00;;;2.60;5.10;;;;;;7313623;19;20006;-81
2023/01/31 01:46:15;;;;;;;7.90;4.65;;;2.50;5.00;;;;;;7296517;19;20013;-81
2023/01/31 01:48:47;;;;;;;13.05;4.50;;;2.40;5.20;;;;;;7308535;19;20018;-82
2023/01/31 01:51:19;;;;;;;10.88;5.10;;;2.40;5.90;;;;;;7328465;19;20029;-81
2023/01/31 01:53:52;;;;;;;9.05;4.47;;;2.50;6.00;;;;;;7308447;19;20014;-81
2023/01/31 01:56:31;;;;;;;12.77;5.05;;;2.50;6.00;;;;;;7293824;19;20858;-80
2023/01/31 01:59:05;;;;;;;15.80;5.13;;;2.50;5.70;;;;;;7311253;19;20011;-80
2023/01/31 02:01:38;;;;;;;13.38;4.85;;;2.50;6.00;;;;;;7295857;19;20026;-80
2023/01/31 02:04:13;;;;;;;11.00;4.55;;;2.60;6.70;;;;;;7313166;19;20020;-81
2023/01/31 02:06:46;;;;;;;14.13;5.70;;;2.50;6.60;;;;;;7309111;19;20017;-82
2023/01/31 02:09:23;;;;;;;13.27;5.72;;;2.60;7.50;;;;;;7330631;19;20097;-83
2023/01/31 02:11:56;;;;;;;14.48;6.43;;;2.60;7.40;;;;;;7316097;19;20471;-80
2023/01/31 02:14:27;;;;;;;13.85;5.60;;;2.60;7.70;;;;;;7287863;19;20021;-81
2023/01/31 02:16:57;;;;;;;17.10;6.50;;;2.70;9.00;;;;;;7299182;19;21215;-81
2023/01/31 02:19:37;;;;;;;15.48;6.03;;;2.70;9.10;;;;;;7299106;19;20041;-81
2023/01/31 02:22:19;;;;;;;11.73;6.10;;;2.70;9.00;;;;;;7321135;19;20577;-81
2023/01/31 02:25:32;;;;;;;13.60;5.60;;;2.70;9.50;;;;;;7302736;19;20618;-81
2023/01/31 02:28:33;;;;;;;10.90;5.88;;;2.60;10.00;;;;;;7308057;19;20398;-81
2023/01/31 02:31:39;;;;;;;16.20;6.07;;;2.60;11.10;;;;;;7294626;19;20011;-80
2023/01/31 02:34:18;;;;;;;16.75;6.15;;;2.60;11.10;;;;;;7305266;19;20447;-81
2023/01/31 02:37:00;;;;;;;14.13;6.35;;;2.60;11.10;;;;;;7309086;19;20506;-81
2023/01/31 02:39:38;;;;;;;14.13;7.05;;;2.60;11.90;;;;;;7323316;19;20018;-80
2023/01/31 02:42:17;;;;;;;16.38;6.53;;;2.60;11.80;;;;;;7300435;19;20044;-81
2023/01/31 02:45:01;;;;;;;14.80;5.93;;;2.70;12.10;;;;;;7307897;19;20048;-81
2023/01/31 02:47:49;;;;;;;13.25;7.47;;;2.60;12.40;;;;;;7300376;19;20024;-81
2023/01/31 02:50:28;;;;;;;18.00;6.78;;;2.60;12.30;;;;;;7297011;19;20726;-80
2023/01/31 02:53:05;;;;;;;15.55;6.78;;;2.70;12.60;;;;;;7298869;19;20021;-81
2023/01/31 02:58:26;;;;;;;15.90;6.70;;;2.70;12.70;;;;;;7305517;19;20073;-82
2023/01/31 03:01:02;;;;;;;16.20;7.20;;;2.70;12.60;;;;;;7305446;19;20029;-81
2023/01/31 03:03:36;;;;;;;13.20;6.97;;;2.70;12.60;;;;;;7332578;19;20102;-80
2023/01/31 03:06:21;;;;;;;;;;;2.70;12.40;;;;;;7315069;19;20022;-81
2023/01/31 03:08:55;;;;;;;17.38;7.20;;;2.70;12.40;;;;;;7291091;19;19926;-80
2023/01/31 03:11:31;;;;;;;18.02;6.22;;;2.70;12.90;;;;;;7300714;19;20006;-81
2023/01/31 03:14:09;;;;;;;17.27;7.65;;;2.70;13.00;;;;;;7304107;19;20993;-81
2023/01/31 03:19:33;;;;;;;17.45;7.82;;;2.70;13.10;;;;;;7301379;19;20101;-81
2023/01/31 03:22:15;;;;;;;17.33;7.63;;;2.70;13.20;;;;;;7313222;19;20118;-79
2023/01/31 03:24:47;;;;;;;19.13;7.32;;;2.70;13.40;;;;;;7302549;19;20019;-81
2023/01/31 03:27:17;;;;;;;19.13;7.63;;;2.70;13.50;;;;;;7319164;19;20506;-81
2023/01/31 03:29:48;;;;;;;16.75;8.02;;;2.70;13.60;;;;;;7303442;19;20334;-81
2023/01/31 03:32:23;;;;;;;21.42;7.65;;;2.70;13.70;;;;;;7307434;19;20074;-80
2023/01/31 03:34:54;;;;;;;19.38;7.30;;;2.70;13.70;;;;;;7305056;19;20010;-81
2023/01/31 03:37:35;;;;;;;14.80;6.88;;;2.70;13.90;;;;;;7311989;19;20870;-81
2023/01/31 03:40:10;;;;;;;19.38;7.85;;;2.60;14.00;;;;;;7307932;19;20017;-82
2023/01/31 03:42:47;;;;;;;19.77;7.40;;;2.70;14.00;;;;;;7301784;19;20655;-82
2023/01/31 03:45:21;;;;;;;20.88;7.47;;;2.70;14.20;;;;;;7324292;19;20017;-81
2023/01/31 03:47:53;;;;;;;16.98;8.00;;;2.70;13.80;;;;;;7302015;19;20015;-81
2023/01/31 03:50:29;;;;;;;17.20;8.05;;;2.70;13.80;;;;;;7292895;19;20078;-80
2023/01/31 03:53:08;;;;;;;16.35;7.88;;;2.70;13.80;;;;;;7312006;19;20014;-81
2023/01/31 03:55:44;;;;;;;16.45;7.15;;;2.70;13.60;;;;;;7309484;19;20295;-80
2023/01/31 03:58:19;;;;;;;17.45;7.40;;;2.70;14.20;;;;;;7301335;19;20043;-81
2023/01/31 04:00:51;;;;;;;16.40;7.25;;;2.70;13.50;;;;;;7301867;19;20571;-81
2023/01/31 04:03:26;;;;;;;15.52;7.22;;;2.60;13.40;;;;;;7322342;19;20454;-82
2023/01/31 04:05:56;;;;;;;;;;;2.60;13.10;;;;;;7301017;19;20002;-81
2023/01/31 04:08:28;;;;;;;15.55;7.13;;;2.60;13.30;;;;;;7304851;19;19919;-81
2023/01/31 04:10:59;;;;;;;18.98;7.05;;;2.60;13.30;;;;;;7292611;19;20007;-81
2023/01/31 04:13:29;;;;;;;18.17;6.78;;;2.60;13.20;;;;;;7300486;19;20033;-80
2023/01/31 04:15:59;;;;;;;15.38;7.47;;;2.50;13.30;;;;;;7306225;19;20006;-81
2023/01/31 04:18:29;;;;;;;18.58;7.88;;;2.50;13.30;;;;;;7311639;19;20048;-81
2023/01/31 04:20:59;;;;;;;13.15;7.18;;;2.50;13.40;;;;;;7292813;19;20014;-81
2023/01/31 04:23:32;;;;;;;15.32;7.25;;;2.40;13.70;;;;;;7290845;19;20007;-81
2023/01/31 04:26:02;;;;;;;21.20;8.20;;;2.30;13.70;;;;;;7293373;19;20221;-81
2023/01/31 04:28:32;;;;;;;16.30;8.15;;;2.30;13.80;;;;;;7301500;19;20011;-80
2023/01/31 04:31:01;;;;;;;13.38;7.15;;;2.20;14.30;;;;;;7292227;19;20490;-81
2023/01/31 04:33:31;;;;;;;18.15;7.80;;;2.10;14.30;;;;;;7320859;19;20023;-81
2023/01/31 04:36:04;;;;;;;15.80;7.15;;;2.10;15.00;;;;;;7313508;19;20040;-81
2023/01/31 04:38:39;;;;;;;18.13;7.53;;;2.10;15.40;;;;;;7289271;19;20601;-81
2023/01/31 04:41:09;;;;;;;21.10;7.35;;;2.00;15.50;;;;;;7303365;19;20018;-81
2023/01/31 04:43:39;;;;;;;26.40;9.20;;;1.90;15.80;;;;;;7307231;19;20459;-82
2023/01/31 04:46:09;;;;;;;19.73;9.70;;;2.00;16.80;;;;;;7307565;19;20416;-82
2023/01/31 04:48:40;;;;;;;19.48;8.25;;;2.00;17.70;;;;;;7302255;19;20275;-81
2023/01/31 04:51:10;;;;;;;17.83;8.75;;;1.90;17.70;;;;;;7324686;19;20014;-81
2023/01/31 04:53:45;;;;;;;22.75;9.50;;;1.80;17.80;;;;;;7310064;19;20011;-81
2023/01/31 04:56:14;;;;;;;16.00;8.48;;;1.70;18.80;;;;;;7316160;19;20018;-81
2023/01/31 04:58:44;;;;;;;21.80;8.77;;;1.70;19.50;;;;;;7302414;19;20099;-80
2023/01/31 05:01:14;;;;;;;21.85;9.60;;;1.70;20.00;;;;;;7312353;19;20549;-80
2023/01/31 05:03:44;;;;;;;21.88;9.05;;;1.60;20.50;;;;;;7306193;19;20010;-80
2023/01/31 05:06:14;;;;;;;20.95;8.48;;;1.70;21.40;;;;;;7322570;19;20082;-81
2023/01/31 05:08:47;;;;;;;22.95;10.27;;;1.70;22.20;;;;;;7297661;19;20675;-81
2023/01/31 05:11:17;;;;;;;25.02;10.63;;;1.80;22.80;;;;;;7297916;19;20010;-81
2023/01/31 05:13:47;;;;;;;22.42;9.40;;;1.80;22.70;;;;;;7297361;19;20014;-81
2023/01/31 05:16:17;;;;;;;21.00;9.00;;;1.70;22.10;;;;;;7308234;19;20013;-81
2023/01/31 05:18:49;;;;;;;28.30;10.73;;;1.70;22.90;;;;;;7303613;19;20036;-81
2023/01/31 05:21:19;;;;;;;24.23;10.40;;;1.70;23.30;;;;;;7330504;19;20045;-82
2023/01/31 05:23:52;;;;;;;24.10;9.90;;;1.70;23.20;;;;;;7317574;19;20011;-82
2023/01/31 05:26:22;;;;;;;17.75;9.10;;;1.70;23.40;;;;;;7309742;19;20147;-81
2023/01/31 05:28:51;;;;;;;22.20;10.05;;;1.80;23.40;;;;;;7313114;19;20022;-82
2023/01/31 05:31:21;;;;;;;23.98;10.30;;;1.70;23.90;;;;;;7305022;19;20026;-82
2023/01/31 05:33:52;;;;;;;21.15;9.32;;;1.80;23.60;;;;;;7297584;19;20019;-81
2023/01/31 05:36:22;;;;;;;26.00;10.57;;;1.70;23.70;;;;;;7324315;19;20019;-81
2023/01/31 05:38:55;;;;;;;24.13;11.07;;;1.60;23.90;;;;;;7316296;19;20014;-81
2023/01/31 05:41:25;;;;;;;19.70;9.95;;;1.70;24.30;;;;;;7306366;19;20021;-80
2023/01/31 05:43:56;;;;;;;19.98;9.23;;;1.60;24.20;;;;;;7315303;19;20407;-82
2023/01/31 05:46:25;;;;;;;23.13;10.88;;;1.60;24.70;;;;;;7306396;19;21549;-81
2023/01/31 05:48:55;;;;;;;20.63;11.00;;;1.60;24.30;;;;;;7304726;19;20007;-83
2023/01/31 05:51:25;;;;;;;24.83;10.30;;;1.60;24.90;;;;;;7323355;19;20439;-81
2023/01/31 05:53:58;;;;;;;26.35;10.45;;;1.60;24.20;;;;;;7305680;19;20488;-81
2023/01/31 05:56:29;;;;;;;25.15;10.73;;;1.50;24.20;;;;;;7311314;19;20505;-81
2023/01/31 05:59:01;;;;;;;20.55;8.80;;;1.40;24.10;;;;;;7306997;19;20010;-81
2023/01/31 06:01:32;;;;;;;23.52;10.05;;;1.30;24.20;;;;;;7300405;19;20263;-80
2023/01/31 06:04:02;;;;;;;25.30;9.60;;;1.30;24.70;;;;;;7315774;19;20855;-82
2023/01/31 06:06:32;;;;;;;23.85;9.52;;;1.20;24.90;;;;;;7340030;19;20039;-81
2023/01/31 06:09:04;;;;;;;18.70;9.48;;;1.10;24.80;;;;;;7320375;19;20485;-81
2023/01/31 06:11:34;;;;;;;24.05;10.00;;;1.00;24.90;;;;;;7321937;19;20034;-80
2023/01/31 06:14:05;;;;;;;20.73;9.27;;;1.00;25.50;;;;;;7313763;19;20014;-81
2023/01/31 06:16:35;;;;;;;23.42;10.27;;;0.90;25.60;;;;;;7311847;19;20079;-81
2023/01/31 06:19:05;;;;;;;20.42;10.32;;;0.90;26.00;;;;;;7311484;19;20241;-82
2023/01/31 06:21:35;;;;;;;20.80;8.88;;;0.80;26.50;;;;;;7314093;19;20018;-80
2023/01/31 06:24:09;;;;;;;25.63;9.38;;;0.80;26.40;;;;;;7343211;19;20573;-81
2023/01/31 06:26:38;;;;;;;17.90;9.40;;;0.70;26.50;;;;;;7319432;19;20010;-80
2023/01/31 06:29:10;;;;;;;21.63;9.60;;;0.70;26.70;;;;;;7309175;19;20014;-80
2023/01/31 06:31:40;;;;;;;20.58;9.57;;;0.70;26.80;;;;;;7311618;19;20380;-81
2023/01/31 06:34:10;;;;;;;20.33;9.30;;;0.60;26.80;;;;;;7302280;19;20121;-82
2023/01/31 06:36:40;;;;;;;22.58;9.63;;;0.60;26.90;;;;;;7315562;19;20303;-81
2023/01/31 06:39:15;;;;;;;22.92;9.98;;;0.60;27.10;;;;;;7327534;19;20010;-81
2023/01/31 06:41:45;;;;;;;26.05;8.68;;;0.60;27.10;;;;;;7304697;19;20014;-80
2023/01/31 06:44:15;;;;;;;25.35;9.20;;;0.70;27.10;;;;;;7313815;19;20018;-82
2023/01/31 06:46:45;;;;;;;23.95;8.75;;;0.60;27.00;;;;;;7309767;19;20018;-81
2023/01/31 06:49:15;;;;;;;20.60;9.23;;;0.60;27.00;;;;;;7317200;19;20022;-81
2023/01/31 06:51:44;;;;;;;20.77;8.55;;;0.60;27.00;;;;;;7317495;19;20047;-81
2023/01/31 06:54:17;;;;;;;20.95;8.75;;;0.60;26.80;;;;;;7332788;19;20581;-81
2023/01/31 06:56:47;;;;;;;21.73;8.48;;;0.80;27.10;;;;;;7295309;19;20037;-81
2023/01/31 06:59:17;;;;;;;20.85;8.55;;;0.80;26.40;;;;;;7297100;19;20026;-82
2023/01/31 07:01:47;;;;;;;16.60;7.57;;;0.80;25.80;;;;;;7302295;19;20496;-82
2023/01/31 07:04:17;;;;;;;15.18;7.53;;;0.80;25.60;;;;;;7295824;19;20043;-82
2023/01/31 07:06:46;;;;;;;19.30;8.05;;;0.80;24.10;;;;;;7319079;19;20010;-81
2023/01/31 07:09:19;;;;;;;21.33;8.00;;;0.80;23.80;;;;;;7317266;19;20018;-81
2023/01/31 07:11:49;;;;;;;19.58;8.38;;;0.90;23.80;;;;;;7312018;19;20014;-81
2023/01/31 07:14:19;;;;;;;17.17;8.13;;;1.00;22.40;;;;;;7318228;19;20474;-82
2023/01/31 07:16:49;;;;;;;14.57;6.40;;;0.90;21.60;;;;;;7297162;19;20374;-81
2023/01/31 07:19:19;;;;;;;18.92;7.90;;;1.00;21.10;;;;;;7308034;19;20014;-81
2023/01/31 07:21:49;;;;;;;14.40;7.30;;;1.00;20.50;;;;;;7307768;19;20471;-82
2023/01/31 07:24:22;;;;;;;18.42;7.15;;;1.10;19.40;;;;;;7329390;19;20603;-82
2023/01/31 07:26:54;;;;;;;14.40;6.75;;;1.10;18.70;;;;;;7318662;19;20530;-80
2023/01/31 07:29:24;;;;;;;19.30;6.72;;;1.20;18.20;;;;;;7300006;19;20026;-81
2023/01/31 07:31:56;;;;;;;15.13;6.28;;;1.30;17.20;;;;;;7298564;19;20651;-81
2023/01/31 07:34:26;;;;;;;19.00;6.50;;;1.30;16.70;;;;;;7306031;19;20017;-80
2023/01/31 07:36:56;;;;;;;21.25;6.93;;;1.40;16.00;;;;;;7305842;19;20014;-82
2023/01/31 07:39:29;;;;;;;19.27;6.95;;;1.50;15.10;;;;;;7318639;19;20470;-80
2023/01/31 07:41:59;;;;;;;10.40;5.82;;;1.60;14.00;;;;;;7305461;19;20073;-81
2023/01/31 07:44:29;;;;;;;15.50;6.68;;;1.60;13.00;;;;;;7307181;19;20020;-81
2023/01/31 07:47:00;;;;;;;14.73;5.78;;;1.60;12.40;;;;;;7313287;19;20473;-82
2023/01/31 07:49:30;;;;;;;13.02;6.88;;;1.60;11.50;;;;;;7308847;19;20010;-80
2023/01/31 07:52:00;;;;;;;16.33;6.68;;;1.60;11.40;;;;;;7313333;19;20022;-81
2023/01/31 07:54:33;;;;;;;14.00;5.80;;;1.60;11.10;;;;;;7329676;19;20017;-81
2023/01/31 07:57:03;;;;;;;15.02;5.90;;;1.70;10.50;;;;;;7305810;19;20018;-83
2023/01/31 07:59:33;;;;;;;15.75;6.68;;;1.60;10.40;;;;;;7309758;19;20482;-81
2023/01/31 08:04:45;;;;;;;14.07;5.93;;;1.70;9.80;;;;;;7313909;19;20038;-80
2023/01/31 08:07:16;;;;;;;18.20;6.65;;;1.70;9.50;;;;;;7305490;19;20702;-81
2023/01/31 08:09:49;;;;;;;10.55;5.25;;;1.80;9.20;;;;;;7301302;19;20700;-81
2023/01/31 08:12:19;;;;;;;17.55;6.93;;;1.90;9.10;;;;;;7316655;19;20010;-82
2023/01/31 08:14:50;;;;;;;14.80;6.40;;;2.00;7.90;;;;;;7301499;19;20014;-82
2023/01/31 08:17:20;;;;;;;12.90;5.68;;;2.20;7.30;;;;;;7308768;19;20835;-82
2023/01/31 08:19:50;;;;;;;19.10;6.82;;;2.40;6.10;;;;;;7334324;19;20010;-82
2023/01/31 08:22:21;;;;;;;14.48;5.53;;;2.50;5.10;;;;;;7311033;19;20439;-80
2023/01/31 08:24:54;;;;;;;22.23;6.07;;;2.60;3.80;;;;;;7316556;19;20017;-81
2023/01/31 08:27:24;;;;;;;20.58;7.13;;;2.70;3.70;;;;;;7326424;19;20022;-79
2023/01/31 08:29:54;;;;;;;15.02;5.95;;;2.70;2.10;;;;;;7308486;19;20121;-80
2023/01/31 08:32:24;;;;;;;13.65;5.38;;;2.60;1.70;;;;;;7311028;19;20014;-80
2023/01/31 08:34:54;;;;;;;18.48;6.65;;;2.70;1.60;;;;;;7327488;19;20669;-80
2023/01/31 08:37:25;;;;;;;16.38;6.25;;;2.80;1.60;;;;;;7310343;19;20059;-81
2023/01/31 08:39:57;;;;;;;12.80;5.38;;;2.90;1.40;;;;;;7317531;19;20095;-79
2023/01/31 08:42:27;;;;;;;13.00;4.88;;;2.90;1.00;;;;;;7337650;19;20014;-80
2023/01/31 08:44:58;;;;;;;11.13;5.07;;;3.00;1.00;;;;;;7327158;19;20011;-82
2023/01/31 08:47:28;;;;;;;16.45;6.30;;;3.00;1.00;;;;;;7318267;19;20014;-79
2023/01/31 08:49:58;;;;;;;13.90;5.18;;;2.90;1.00;;;;;;7303333;19;20018;-82
2023/01/31 08:52:28;;;;;;;13.05;5.40;;;2.90;1.00;;;;;;7336391;19;20010;-81
2023/01/31 08:55:01;;;;;;;17.75;5.60;;;2.80;1.00;;;;;;7301066;19;20252;-81
2023/01/31 08:57:31;;;;;;;18.52;6.43;;;2.80;1.00;;;;;;7390747;19;20407;-79
2023/01/31 09:00:01;;;;;;;16.65;5.90;;;2.80;1.00;;;;;;7362960;19;20567;-79
2023/01/31 09:02:34;;;;;;;16.85;5.88;;;2.90;1.00;;;;;;7363581;19;20086;-79
2023/01/31 09:05:03;;;;;;;10.63;5.28;;;2.90;1.00;;;;;;7364553;19;20021;-78
2023/01/31 09:07:33;;;;;;;15.52;4.70;;;3.00;1.00;;;;;;7364926;19;20036;-80
2023/01/31 09:10:07;;;;;;;16.17;5.07;;;3.10;1.00;;;;;;7361834;19;20018;-78
2023/01/31 09:12:37;;;;;;;11.13;4.35;;;3.30;1.00;;;;;;7364636;19;20018;-80
2023/01/31 09:15:08;;;;;;;10.65;5.03;;;3.40;1.00;;;;;;7390804;19;20014;-78
2023/01/31 09:17:37;;;;;;;14.65;4.70;;;3.50;1.00;;;;;;7366256;19;20011;-79
2023/01/31 09:20:09;;;;;;;16.65;5.28;;;3.70;1.00;;;;;;7363098;19;20502;-79
2023/01/31 09:22:39;;;;;;;14.95;4.93;;;3.80;1.00;;;;;;7364625;19;20497;-80
2023/01/31 09:25:12;;;;;;;13.75;4.82;;;3.80;1.00;;;;;;7365545;19;20014;-78
2023/01/31 09:27:42;;;;;;;10.50;4.40;;;4.00;1.00;;;;;;7367766;19;20021;-78
2023/01/31 09:30:14;;;;;;;15.52;4.93;;;4.10;1.00;;;;;;7382581;19;20105;-79
2023/01/31 09:32:44;;;;;;;9.70;5.00;;;4.10;1.00;;;;;;7364983;19;20022;-80
2023/01/31 09:35:15;;;;;;;16.08;5.00;;;4.20;1.00;;;;;;7366663;19;20010;-79
2023/01/31 09:37:45;;;;;;;15.88;4.60;;;4.20;1.00;;;;;;7364148;19;20069;-79
2023/01/31 09:40:25;;;;;;;18.30;5.45;;;4.20;1.00;;;;;;7362977;19;20021;-79
2023/01/31 09:42:57;;;;;;;14.48;5.43;;;4.20;1.00;;;;;;7363785;19;20458;-81
2023/01/31 09:45:32;;;;;;;15.60;5.20;;;4.00;1.00;;;;;;7381942;19;20018;-80
2023/01/31 09:48:04;;;;;;;16.75;5.50;;;4.00;1.00;;;;;;7367800;19;20006;-81
2023/01/31 09:50:37;;;;;;;13.40;5.30;;;4.10;1.00;;;;;;7362530;19;20490;-79
2023/01/31 09:53:08;;;;;;;12.70;4.53;;;4.30;1.00;;;;;;7362987;19;20018;-79
2023/01/31 09:55:45;;;;;;;14.55;4.82;;;4.40;1.00;;;;;;7361852;19;20392;-79
2023/01/31 09:58:24;;;;;;;12.60;4.90;;;4.50;1.00;;;;;;7362657;19;20010;-79
2023/01/31 10:01:04;;;;;;;17.02;5.38;;;4.50;1.00;;;;;;7363839;19;25976;-80
2023/01/31 10:03:43;;;;;;;18.85;5.22;;;4.40;1.00;;;;;;7384711;19;20018;-79
2023/01/31 10:06:20;;;;;;;15.30;4.82;;;4.50;1.00;;;;;;7384032;19;20010;-79
2023/01/31 10:08:55;;;;;;;18.27;5.55;;;4.30;1.00;;;;;;7362180;19;20014;-79
2023/01/31 10:11:36;;;;;;;12.90;5.18;;;4.50;1.00;;;;;;7363926;19;20053;-81
2023/01/31 10:14:20;;;;;;;13.07;5.75;;;4.50;1.00;;;;;;7365659;19;20007;-81
2023/01/31 10:16:59;;;;;;;14.35;5.65;;;4.70;1.00;;;;;;7363478;19;20010;-80
2023/01/31 10:19:34;;;;;;;8.80;4.03;;;4.50;1.00;;;;;;7363235;19;20025;-79
2023/01/31 10:22:09;;;;;;;9.15;4.05;;;4.50;1.00;;;;;;7367483;19;20018;-80
2023/01/31 10:24:44;;;;;;;12.90;3.85;;;4.60;1.00;;;;;;7366291;19;20010;-79
2023/01/31 10:27:22;;;;;;;9.25;3.70;;;4.60;1.00;;;;;;7389645;19;20577;-79
2023/01/31 10:29:55;;;;;;;12.38;4.32;;;4.70;1.00;;;;;;7361775;19;20085;-80
2023/01/31 10:32:29;;;;;;;10.57;3.85;;;4.80;1.00;;;;;;7365037;19;20154;-78
2023/01/31 10:35:04;;;;;;;11.93;3.78;;;5.00;1.00;;;;;;7362574;19;20456;-80
2023/01/31 10:37:39;;;;;;;11.93;3.90;;;5.10;1.00;;;;;;7362711;19;20014;-81
2023/01/31 10:40:17;;;;;;;13.90;4.18;;;5.10;1.00;;;;;;7359969;19;20014;-80
2023/01/31 10:42:53;;;;;;;8.98;3.60;;;5.00;1.00;;;;;;7360547;19;20011;-81
2023/01/31 10:45:29;;;;;;;9.77;3.95;;;4.80;1.00;;;;;;7382805;19;20054;-79
2023/01/31 10:48:14;;;;;;;12.93;4.60;;;5.00;1.00;;;;;;7367018;19;20413;-80
2023/01/31 10:50:59;;;;;;;13.25;3.35;;;5.00;1.00;;;;;;7362578;19;20017;-81
2023/01/31 10:53:36;;;;;;;;;;;5.10;1.00;;;;;;7360973;19;20879;-80
2023/01/31 10:56:09;;;;;;;11.07;3.78;;;5.00;1.00;;;;;;7361757;19;20343;-80
2023/01/31 10:58:41;;;;;;;13.82;3.42;;;4.90;1.00;;;;;;7360060;19;20018;-79
2023/01/31 11:01:13;;;;;;;8.90;3.22;;;4.70;1.00;;;;;;7359752;19;20035;-80
2023/01/31 11:03:50;;;;;;;9.25;3.13;;;4.70;1.00;;;;;;7361778;19;20482;-81
2023/01/31 11:06:20;;;;;;;11.48;4.35;;;4.60;1.00;;;;;;7382692;19;20015;-81
2023/01/31 11:08:53;;;;;;;9.20;3.88;;;4.50;1.00;;;;;;7360511;19;20015;-80
2023/01/31 11:11:25;;;;;;;13.27;4.55;;;4.40;1.00;;;;;;7362711;19;20114;-82
2023/01/31 11:14:01;;;;;;;10.82;4.72;;;4.40;1.00;;;;;;7364114;19;20031;-80
2023/01/31 11:16:34;;;;;;;10.73;4.50;;;4.30;1.00;;;;;;7361013;19;20014;-79
2023/01/31 11:19:17;;;;;;;12.27;4.93;;;4.60;1.00;;;;;;7362989;19;20628;-80
2023/01/31 11:21:51;;;;;;;14.77;4.55;;;4.90;1.00;;;;;;7362499;19;20485;-78
2023/01/31 11:24:23;;;;;;;13.55;5.05;;;5.20;1.00;;;;;;7381649;19;20015;-80
2023/01/31 11:26:56;;;;;;;10.13;4.57;;;5.20;1.00;;;;;;7361024;19;20073;-79
2023/01/31 11:29:31;;;;;;;8.80;4.13;;;5.20;1.00;;;;;;7359177;19;20120;-81
2023/01/31 11:32:03;;;;;;;8.77;4.07;;;5.30;1.00;;;;;;7359894;19;20039;-79
2023/01/31 11:34:33;;;;;;;14.50;4.60;;;5.40;1.00;;;;;;7362740;19;20466;-79
2023/01/31 11:37:08;;;;;;;11.43;3.55;;;5.40;1.00;;;;;;7388605;19;20025;-80
2023/01/31 11:39:39;;;;;;;10.48;4.15;;;5.40;1.00;;;;;;7385379;19;20444;-79
2023/01/31 11:42:14;;;;;;;10.68;3.47;;;5.40;1.00;;;;;;7390070;19;20030;-79
2023/01/31 11:45:01;;;;;;;13.75;3.50;;;5.50;1.00;;;;;;7359786;19;20470;-80
2023/01/31 11:47:39;;;;;;;14.50;3.35;;;5.40;1.00;;;;;;7361269;19;20006;-81
2023/01/31 11:50:21;;;;;;;10.82;2.88;;;5.40;1.00;;;;;;7359923;19;20018;-80
2023/01/31 11:52:58;;;;;;;13.63;3.88;;;5.60;1.00;;;;;;7363118;19;20094;-80
2023/01/31 11:55:29;;;;;;;14.85;2.92;;;5.70;1.00;;;;;;7392058;19;20010;-80
2023/01/31 11:58:02;;;;;;;11.90;2.92;;;5.60;1.00;;;;;;7373527;19;20074;-79
2023/01/31 12:00:35;;;;;;;9.98;2.47;;;5.50;1.00;;;;;;7372927;19;20041;-80
2023/01/31 12:03:08;;;;;;;9.38;2.88;;;5.70;1.00;;;;;;7368673;19;20018;-81
2023/01/31 12:05:42;;;;;;;6.43;2.90;;;5.60;1.00;;;;;;7366381;19;20086;-79
2023/01/31 12:08:29;;;;;;;5.97;2.35;;;5.60;1.00;;;;;;7366821;19;20018;-79
2023/01/31 12:10:59;;;;;;;13.73;2.47;;;5.70;1.00;;;;;;7366487;19;20433;-82
2023/01/31 12:13:29;;;;;;;11.20;2.50;;;5.70;1.00;;;;;;7390669;19;20023;-79
2023/01/31 12:16:04;;;;;;;7.60;2.35;;;5.60;1.00;;;;;;7364643;19;20258;-79
2023/01/31 12:18:56;;;;;;;11.30;2.80;;;5.90;1.00;;;;;;7368557;19;20090;-81
2023/01/31 12:21:46;;;;;;;7.93;2.60;;;5.80;1.00;;;;;;7367495;19;20038;-80
2023/01/31 12:24:28;;;;;;;6.13;2.97;;;5.60;1.00;;;;;;7366510;19;20037;-80
2023/01/31 12:27:02;;;;;;;13.32;2.65;;;5.80;1.00;;;;;;7368222;19;20056;-80
2023/01/31 12:30:01;;;;;;;6.28;2.90;;;5.60;1.00;;;;;;7364840;19;20034;-80
2023/01/31 12:32:49;;;;;;;7.90;2.60;;;5.80;1.00;;;;;;7367088;19;20069;-80
2023/01/31 12:35:37;;;;;;;7.80;2.90;;;5.90;1.00;;;;;;7364300;19;20053;-81
2023/01/31 12:38:22;;;;;;;8.75;2.17;;;5.80;1.00;;;;;;7365938;19;20021;-81
2023/01/31 12:41:05;;;;;;;9.10;3.08;;;5.70;1.00;;;;;;7362519;19;20006;-80
2023/01/31 12:43:57;;;;;;;12.50;2.75;;;5.70;1.00;;;;;;7366225;19;20018;-80
2023/01/31 12:46:37;;;;;;;10.65;2.30;;;5.60;1.00;;;;;;7387760;19;20018;-78
2023/01/31 12:49:35;;;;;;;7.32;2.33;;;5.70;1.00;;;;;;7364873;19;20035;-80
2023/01/31 12:52:12;;;;;;;8.18;2.65;;;5.50;1.00;;;;;;7361651;19;20025;-82
2023/01/31 12:54:53;;;;;;;5.43;2.70;;;5.40;1.00;;;;;;7365204;19;20372;-81
2023/01/31 12:57:34;;;;;;;8.82;2.65;;;5.50;1.00;;;;;;7367113;19;20021;-81
2023/01/31 13:00:20;;;;;;;5.00;2.30;;;5.40;1.00;;;;;;7358404;19;20011;-81
2023/01/31 13:03:04;;;;;;;6.18;2.35;;;5.40;1.00;;;;;;7364356;19;20015;-83
2023/01/31 13:05:44;;;;;;;11.07;3.03;;;5.40;1.00;;;;;;7361560;19;20007;-81
2023/01/31 13:08:19;;;;;;;6.88;2.50;;;5.60;1.00;;;;;;7363327;19;20398;-81
2023/01/31 13:10:55;;;;;;;10.77;2.67;;;5.60;1.00;;;;;;7359374;19;20015;-81
2023/01/31 13:13:29;;;;;;;9.80;2.78;;;5.60;1.00;;;;;;7388173;19;20021;-81
2023/01/31 13:16:04;;;;;;;4.30;2.00;;;5.50;1.00;;;;;;7366424;19;20011;-84
2023/01/31 13:18:36;;;;;;;6.72;2.58;;;5.70;1.00;;;;;;7362597;19;20015;-81
2023/01/31 13:21:10;;;;;;;7.88;2.60;;;5.60;1.00;;;;;;7363461;19;20069;-81
2023/01/31 13:23:44;;;;;;;8.00;2.53;;;5.60;1.00;;;;;;7365668;19;20438;-79
2023/01/31 13:26:20;;;;;;;7.22;2.55;;;5.60;1.00;;;;;;7364308;19;20399;-80
2023/01/31 13:28:57;;;;;;;9.10;2.25;;;5.50;1.00;;;;;;7363436;19;20019;-80
2023/01/31 13:31:30;;;;;;;13.50;2.70;;;5.40;1.00;;;;;;7386065;19;20018;-80
2023/01/31 13:34:07;;;;;;;10.70;2.90;;;5.40;1.00;;;;;;7364647;19;20010;-78
2023/01/31 13:36:44;;;;;;;5.55;2.20;;;5.40;1.00;;;;;;7363643;19;20106;-79